Accueil
METAR-TAF:

METAR-TAF

Aéroports :

Stuttgart, Allemagne

Aéroport de Stuttgart

latitude: 48-41N, longitude: 009-13E, altitude: 396 m

Observation

Le bulletin a été fait il y a 24 minutes, à 17:50 UTC
Vent 12 kt de est/nord-est
Température 0°C
Humidité 64%
Pression 1014 hPa
Visibilité 10 km ou plus
Nuages fragmentés à une hauteur de 3300 ft

METAR: EDDS 231750Z 06012KT 9999 BKN033 00/M06 Q1014 NOSIG

Heure: 19:14 (18:14 UTC)

Prévision

Le bulletin a été fait il y a 1 heure et 14 minutes, à 17:00 UTC
Prévision valable du 23 à 18 UTC au 24 à 18 UTC
Vent 10 kt de nord-est
Visibilité 10 km ou plus
Nuages fragmentés à une hauteur de 3000 ft
Evoluant progressivement
du 24 à 06 UTC au 24 à 09 UTC
Vent 15 kt de est/nord-est avec des rafales jusqu'à 25 kt

TAF: EDDS 231700Z 2318/2418 05010KT 9999 BKN030 BECMG 2406/2409 06015G25KT

Observations et prévisions météorologiques de plus de 4000 aéroports (messages METAR et TAF).

Les stations disponibles sont représentées par des disques jaunes et rouges sur la carte.

Passer la souris dessus pour voir le nom de la station.

Cliquer dessus pour voir les observations et prévisions météorologiques.

Pour changer de carte: cliquez sur les boutons verts avec une croix noire pour zoomer, sur le bouton vert avec un tiret pour effectuer un zoom arrière, ou sur les flèches vertes pour les cartes adjacentes.


METAR-TAF: